Time;durP1;ratioP1;P1;durP2;ratioP2;P2;SDS_P1;SDS_P2;PMS_P1;PMS_P2;Temp;Humidity;BMP_temperature;BMP_pressure;BME280_temperature;BME280_humidity;BME280_pressure;Samples;Min_cycle;Max_cycle;Signal;HPM_P1;HPM_P2
2021/01/09 00:00:38;;;;;;;10.32;7.07;;;-3.70;99.90;;;;;;6375954;27;20023;-76
2021/01/09 00:03:39;;;;;;;10.45;6.75;;;;;;;;;;6375402;27;20043;-79
2021/01/09 00:06:40;;;;;;;11.43;7.68;;;-4.00;94.90;;;;;;6374646;27;20395;-76
2021/01/09 00:09:41;;;;;;;9.45;6.78;;;;;;;;;;6357349;27;20055;-75
2021/01/09 00:12:41;;;;;;;15.35;7.75;;;-4.00;99.90;;;;;;6375877;27;20028;-77
2021/01/09 00:15:42;;;;;;;13.63;7.10;;;-3.90;99.90;;;;;;6375533;27;20110;-78
2021/01/09 00:18:42;;;;;;;12.95;7.00;;;-3.50;99.90;;;;;;6375789;27;20058;-79
2021/01/09 00:21:43;;;;;;;10.85;6.43;;;-3.90;99.90;;;;;;6375384;27;20111;-75
2021/01/09 00:24:44;;;;;;;12.68;7.97;;;-4.00;99.90;;;;;;6375561;27;20026;-76
2021/01/09 00:27:45;;;;;;;12.70;7.65;;;-4.00;99.90;;;;;;6375271;27;20531;-75
2021/01/09 00:30:45;;;;;;;12.43;8.15;;;-4.10;99.90;;;;;;6356946;27;20098;-76
2021/01/09 00:33:47;;;;;;;12.15;7.22;;;-4.00;99.90;;;;;;6375071;27;20061;-76
2021/01/09 00:36:48;;;;;;;11.93;6.93;;;-4.00;95.00;;;;;;6375077;27;20027;-77
2021/01/09 00:39:49;;;;;;;9.00;6.25;;;-4.10;99.90;;;;;;6375075;27;20464;-76
2021/01/09 00:42:49;;;;;;;11.05;7.28;;;-2.70;94.20;;;;;;6374754;27;20027;-75
2021/01/09 00:45:50;;;;;;;12.65;8.43;;;-4.10;99.90;;;;;;6374889;27;20051;-76
2021/01/09 00:48:51;;;;;;;11.60;6.53;;;-4.20;99.90;;;;;;6374707;27;20445;-76
2021/01/09 00:51:51;;;;;;;10.02;6.78;;;-3.10;95.60;;;;;;6375131;27;20038;-76
2021/01/09 00:54:52;;;;;;;9.43;6.60;;;-4.10;99.90;;;;;;6374482;27;20102;-75
2021/01/09 00:57:53;;;;;;;9.60;6.88;;;-4.10;94.60;;;;;;6374601;27;20069;-76
2021/01/09 01:00:53;;;;;;;12.52;7.15;;;-3.90;99.90;;;;;;6374398;27;20676;-79
2021/01/09 01:03:54;;;;;;;8.77;6.10;;;-3.40;99.90;;;;;;6373895;27;20127;-76
2021/01/09 01:06:55;;;;;;;9.77;5.68;;;-2.40;94.40;;;;;;6374391;27;20015;-79
2021/01/09 01:09:55;;;;;;;10.27;7.07;;;-4.20;99.90;;;;;;6374186;27;20046;-75
2021/01/09 01:12:56;;;;;;;12.82;8.00;;;-4.10;94.60;;;;;;6374404;27;20091;-77
2021/01/09 01:15:57;;;;;;;12.02;7.45;;;-4.20;94.10;;;;;;6373776;27;20023;-77
2021/01/09 01:18:57;;;;;;;17.95;8.98;;;-4.10;94.80;;;;;;6374095;27;20059;-76
2021/01/09 01:21:58;;;;;;;23.13;10.90;;;-4.20;94.30;;;;;;6373886;27;20035;-77
2021/01/09 01:24:59;;;;;;;20.00;9.50;;;-4.30;93.40;;;;;;6374080;27;20016;-78
2021/01/09 01:27:59;;;;;;;13.98;7.90;;;-4.50;94.30;;;;;;6373682;27;20026;-76
2021/01/09 01:31:00;;;;;;;11.52;7.25;;;-4.50;94.50;;;;;;6373883;27;20029;-78
2021/01/09 01:34:00;;;;;;;12.88;7.53;;;-2.60;95.70;;;;;;6373821;27;20030;-77
2021/01/09 01:37:01;;;;;;;11.30;6.95;;;-4.20;99.90;;;;;;6373528;27;20469;-76
2021/01/09 01:40:04;;;;;;;11.25;7.63;;;-4.40;99.90;;;;;;6373503;27;20024;-76
2021/01/09 01:43:14;;;;;;;10.65;5.97;;;-4.50;94.80;;;;;;6373169;27;20042;-76
2021/01/09 01:46:15;;;;;;;12.10;6.38;;;-4.50;94.30;;;;;;6373508;27;20031;-75
2021/01/09 01:49:15;;;;;;;11.25;6.90;;;-4.40;94.80;;;;;;6355041;27;20037;-76
2021/01/09 01:52:16;;;;;;;9.88;6.15;;;-3.80;99.90;;;;;;6355199;27;20399;-76
2021/01/09 01:55:17;;;;;;;9.60;6.70;;;-4.30;99.90;;;;;;6373272;27;20015;-76
2021/01/09 01:58:17;;;;;;;8.75;5.90;;;-4.10;99.90;;;;;;6373276;27;20023;-77
2021/01/09 02:01:18;;;;;;;11.52;6.63;;;-4.20;99.90;;;;;;6373170;27;20019;-78
2021/01/09 02:04:19;;;;;;;10.32;6.60;;;-4.20;99.80;;;;;;6372822;27;20072;-78
2021/01/09 02:07:20;;;;;;;12.30;7.55;;;;;;;;;;6373090;27;20058;-75
2021/01/09 02:10:22;;;;;;;11.43;5.95;;;-4.40;99.90;;;;;;6372750;27;20021;-75
2021/01/09 02:13:43;;;;;;;9.63;5.63;;;-4.30;94.30;;;;;;6354864;27;20020;-77
2021/01/09 02:16:44;;;;;;;9.68;6.22;;;-3.90;99.90;;;;;;6372690;27;20028;-78
2021/01/09 02:19:45;;;;;;;9.55;6.40;;;-4.30;94.30;;;;;;6372918;27;20030;-77
2021/01/09 02:22:46;;;;;;;11.00;6.60;;;;;;;;;;6372636;27;20464;-76
2021/01/09 02:25:47;;;;;;;9.82;5.63;;;-4.20;99.90;;;;;;6372907;28;20072;-75
2021/01/09 02:28:47;;;;;;;8.02;5.78;;;-4.30;94.30;;;;;;6372041;27;20334;-75
2021/01/09 02:32:01;;;;;;;10.80;6.07;;;-4.20;99.90;;;;;;6372845;28;20019;-75
2021/01/09 02:35:02;;;;;;;9.30;6.05;;;-4.20;99.90;;;;;;6354229;27;20052;-76
2021/01/09 02:38:03;;;;;;;10.00;6.35;;;-4.20;99.90;;;;;;6354242;28;20031;-78
2021/01/09 02:41:03;;;;;;;9.98;5.80;;;-4.40;99.90;;;;;;6372474;27;20035;-75
2021/01/09 02:44:09;;;;;;;10.70;5.80;;;-4.40;94.10;;;;;;6354239;28;20037;-76
2021/01/09 02:47:10;;;;;;;10.15;6.68;;;-4.40;99.90;;;;;;6337414;28;20023;-75
2021/01/09 02:50:11;;;;;;;10.57;6.28;;;-4.30;94.50;;;;;;6354113;28;20030;-76
2021/01/09 02:53:12;;;;;;;8.52;5.60;;;;;;;;;;6372443;27;20453;-78
2021/01/09 02:56:12;;;;;;;11.07;6.47;;;-4.40;99.90;;;;;;6372245;27;20026;-76
2021/01/09 02:59:13;;;;;;;11.77;5.72;;;-2.40;94.70;;;;;;6372362;28;20034;-76
2021/01/09 03:02:14;;;;;;;12.85;6.43;;;-4.40;99.90;;;;;;6372046;27;20457;-77
2021/01/09 03:05:14;;;;;;;10.05;6.45;;;-4.30;99.90;;;;;;6372194;27;20043;-76
2021/01/09 03:08:15;;;;;;;13.80;7.50;;;;;;;;;;6372185;27;20100;-76
2021/01/09 03:11:16;;;;;;;10.90;6.70;;;-4.70;99.90;;;;;;6372324;28;20024;-76
2021/01/09 03:14:16;;;;;;;10.50;6.57;;;-4.70;99.90;;;;;;6372180;27;20027;-76
2021/01/09 03:17:17;;;;;;;11.02;6.15;;;-4.60;99.90;;;;;;6372314;28;20019;-76
2021/01/09 03:20:18;;;;;;;10.02;6.15;;;-4.60;99.90;;;;;;6372104;28;20027;-77
2021/01/09 03:23:18;;;;;;;8.15;5.88;;;-4.30;99.90;;;;;;6371902;27;20449;-77
2021/01/09 03:26:19;;;;;;;8.77;6.03;;;-4.40;99.90;;;;;;6371962;28;20103;-75
2021/01/09 03:29:19;;;;;;;7.78;5.18;;;-4.40;99.90;;;;;;6371878;27;20024;-75
2021/01/09 03:32:20;;;;;;;10.20;5.38;;;-4.40;99.90;;;;;;6372157;28;20019;-79
2021/01/09 03:35:22;;;;;;;9.70;5.50;;;-4.40;99.90;;;;;;6371835;27;20373;-78
2021/01/09 03:38:22;;;;;;;9.55;5.97;;;-4.30;99.90;;;;;;6372115;28;20027;-75
2021/01/09 03:41:23;;;;;;;8.38;5.57;;;-4.00;99.90;;;;;;6375015;27;20076;-76
2021/01/09 03:44:23;;;;;;;8.68;5.75;;;-4.50;99.90;;;;;;6376587;27;20040;-77
2021/01/09 03:47:24;;;;;;;7.93;5.30;;;;;;;;;;6376262;27;20348;-78
2021/01/09 03:50:25;;;;;;;7.10;4.95;;;-4.60;99.90;;;;;;6376334;27;20019;-79
2021/01/09 03:53:26;;;;;;;7.85;5.70;;;;;;;;;;6376177;27;20039;-78
2021/01/09 03:56:27;;;;;;;7.95;5.22;;;-4.40;92.10;;;;;;6375896;27;20019;-77
2021/01/09 03:59:27;;;;;;;8.23;5.03;;;-4.40;99.90;;;;;;6376238;27;20055;-77
2021/01/09 04:02:28;;;;;;;7.45;5.03;;;-4.40;99.90;;;;;;6375704;27;20064;-77
2021/01/09 04:05:28;;;;;;;7.93;5.32;;;-2.40;94.00;;;;;;6375989;27;20054;-77
2021/01/09 04:08:29;;;;;;;8.55;5.70;;;-4.20;99.90;;;;;;6357527;27;20350;-78
2021/01/09 04:11:30;;;;;;;9.63;6.38;;;-4.40;94.00;;;;;;6357582;27;20019;-78
2021/01/09 04:14:30;;;;;;;8.77;5.95;;;;;;;;;;6375738;27;20036;-77
2021/01/09 04:17:31;;;;;;;9.13;6.22;;;-4.30;99.90;;;;;;6375389;27;20437;-78
2021/01/09 04:20:32;;;;;;;9.43;5.97;;;-4.20;99.90;;;;;;6375448;27;20115;-78
2021/01/09 04:23:33;;;;;;;8.55;5.45;;;-4.00;99.90;;;;;;6375327;27;20039;-78
2021/01/09 04:26:33;;;;;;;7.82;4.78;;;-4.10;99.90;;;;;;6375496;27;20050;-77
2021/01/09 04:29:34;;;;;;;7.60;5.18;;;-4.20;99.40;;;;;;6375261;27;20101;-79
2021/01/09 04:32:35;;;;;;;11.27;5.80;;;-4.30;99.90;;;;;;6357098;27;20033;-77
2021/01/09 04:35:35;;;;;;;13.23;5.97;;;-4.40;99.90;;;;;;6375150;27;20027;-77
2021/01/09 04:38:36;;;;;;;9.27;6.15;;;-4.30;99.90;;;;;;6375289;27;20023;-79
2021/01/09 04:41:37;;;;;;;8.48;5.57;;;-4.40;99.90;;;;;;6374846;27;20026;-77
2021/01/09 04:44:37;;;;;;;8.15;5.55;;;-4.40;99.90;;;;;;6374843;27;20098;-77
2021/01/09 04:47:38;;;;;;;7.68;5.45;;;-4.30;99.90;;;;;;6356598;27;20053;-78
2021/01/09 04:50:40;;;;;;;7.43;5.60;;;-4.20;99.90;;;;;;6338994;27;20045;-77
2021/01/09 04:53:41;;;;;;;9.18;6.30;;;;;;;;;;6356598;27;20513;-77
2021/01/09 04:56:48;;;;;;;9.82;5.75;;;-4.40;99.90;;;;;;6374631;27;20449;-78
2021/01/09 04:59:49;;;;;;;7.82;5.43;;;-4.40;99.90;;;;;;6356280;27;20039;-77
2021/01/09 05:02:50;;;;;;;12.70;5.70;;;-4.40;99.90;;;;;;6374021;27;20095;-77
2021/01/09 05:05:50;;;;;;;9.43;6.15;;;-4.30;99.80;;;;;;6339264;27;20019;-79
2021/01/09 05:08:51;;;;;;;7.57;5.03;;;-4.30;99.90;;;;;;6374117;27;20072;-78
2021/01/09 05:11:51;;;;;;;9.40;6.32;;;-4.20;99.90;;;;;;6355691;27;20034;-77
2021/01/09 05:14:52;;;;;;;9.15;5.05;;;-4.40;99.90;;;;;;6338999;27;20026;-79
2021/01/09 05:17:53;;;;;;;9.40;6.22;;;-4.30;99.90;;;;;;6338811;27;20345;-78
2021/01/09 05:20:56;;;;;;;8.00;6.03;;;-3.60;99.90;;;;;;6374264;27;20026;-77
2021/01/09 05:24:02;;;;;;;9.07;6.05;;;-4.30;99.90;;;;;;6338802;27;20031;-77
2021/01/09 05:27:02;;;;;;;8.63;5.50;;;-4.30;99.90;;;;;;6355932;27;20088;-77
2021/01/09 05:30:04;;;;;;;9.32;6.28;;;-4.20;99.90;;;;;;6373706;27;20106;-76
2021/01/09 05:33:04;;;;;;;31.67;15.48;;;-4.20;93.70;;;;;;6374090;27;20023;-77
2021/01/09 05:36:05;;;;;;;9.38;5.78;;;;;;;;;;6373832;27;20034;-77
2021/01/09 05:39:06;;;;;;;11.35;6.75;;;-4.10;98.20;;;;;;6374416;27;20445;-78
2021/01/09 05:42:07;;;;;;;8.85;6.72;;;-4.10;94.00;;;;;;6373792;27;20031;-77
2021/01/09 05:45:10;;;;;;;8.85;7.03;;;-4.10;93.30;;;;;;6373724;27;20406;-78
2021/01/09 05:48:11;;;;;;;9.32;6.28;;;;;;;;;;6374196;27;20015;-77
2021/01/09 05:51:12;;;;;;;11.45;6.57;;;-4.10;92.70;;;;;;6355218;27;20369;-78
2021/01/09 05:54:13;;;;;;;9.82;6.57;;;-4.10;94.30;;;;;;6373571;27;20062;-77
2021/01/09 05:57:17;;;;;;;8.63;6.20;;;-4.10;93.70;;;;;;6373480;27;20015;-78
2021/01/09 06:00:21;;;;;;;8.70;6.03;;;-4.10;93.20;;;;;;6373349;27;20019;-77
2021/01/09 06:03:23;;;;;;;10.52;5.65;;;-4.20;93.60;;;;;;6337019;27;20047;-79
2021/01/09 06:06:46;;;;;;;10.32;5.88;;;-4.20;92.90;;;;;;6355211;27;20019;-77
2021/01/09 06:09:51;;;;;;;8.50;5.97;;;-4.20;92.40;;;;;;6373325;27;20088;-76
2021/01/09 06:13:00;;;;;;;9.50;6.25;;;-4.10;92.70;;;;;;6355427;27;20026;-78
2021/01/09 06:16:03;;;;;;;9.80;6.25;;;-2.90;93.80;;;;;;6373146;27;20101;-77
2021/01/09 06:19:04;;;;;;;9.80;5.72;;;-4.30;94.10;;;;;;6373226;27;20020;-78
2021/01/09 06:22:05;;;;;;;7.68;5.50;;;-4.40;93.30;;;;;;6354682;27;20414;-77
2021/01/09 06:25:07;;;;;;;12.57;6.15;;;-4.30;93.80;;;;;;6337993;28;20027;-79
2021/01/09 06:28:08;;;;;;;10.20;6.07;;;-4.30;93.10;;;;;;6354560;27;20033;-77
2021/01/09 06:31:09;;;;;;;8.80;6.00;;;-4.30;93.00;;;;;;6337856;28;20023;-77
2021/01/09 06:34:09;;;;;;;9.75;5.78;;;-4.50;93.20;;;;;;6337799;28;20031;-78
2021/01/09 06:37:10;;;;;;;7.32;5.03;;;-2.70;93.10;;;;;;6337678;28;20368;-77
2021/01/09 06:40:12;;;;;;;8.95;5.78;;;-4.20;99.30;;;;;;6372877;27;20046;-77
2021/01/09 06:43:13;;;;;;;7.47;5.22;;;-4.20;93.00;;;;;;6354562;28;20074;-78
2021/01/09 06:46:25;;;;;;;6.82;5.15;;;-4.30;92.60;;;;;;6337557;28;20376;-78
2021/01/09 06:49:26;;;;;;;8.98;6.35;;;-4.20;93.20;;;;;;6372771;28;20460;-77
2021/01/09 06:52:52;;;;;;;7.40;5.32;;;-2.30;93.40;;;;;;6372719;27;20031;-77
2021/01/09 06:55:53;;;;;;;6.55;4.60;;;-4.10;98.20;;;;;;6355246;28;20556;-78
2021/01/09 06:58:54;;;;;;;8.30;6.13;;;-1.00;94.30;;;;;;6372514;28;20095;-78
2021/01/09 07:02:14;;;;;;;67.97;35.13;;;-4.40;99.90;;;;;;6372598;27;20028;-77
2021/01/09 07:05:21;;;;;;;16.08;9.55;;;-2.50;94.60;;;;;;6372540;27;20063;-78
2021/01/09 07:08:25;;;;;;;10.82;8.00;;;-4.10;99.90;;;;;;6372623;27;20027;-77
2021/01/09 07:11:26;;;;;;;26.45;23.77;;;-4.50;94.00;;;;;;6354402;28;20027;-77
2021/01/09 07:14:32;;;;;;;10.32;6.55;;;-4.20;95.00;;;;;;6355754;27;20080;-76
2021/01/09 07:17:35;;;;;;;12.02;6.50;;;-4.30;93.60;;;;;;6359931;27;20051;-77
2021/01/09 07:20:41;;;;;;;10.68;6.38;;;-4.40;93.90;;;;;;6377077;27;20487;-78
2021/01/09 07:23:42;;;;;;;9.95;7.13;;;;;;;;;;6377329;27;20039;-79
2021/01/09 07:26:42;;;;;;;11.65;8.57;;;-4.10;98.00;;;;;;6358806;27;20072;-78
2021/01/09 07:29:43;;;;;;;8.95;6.05;;;-4.10;93.40;;;;;;6358883;27;20102;-77
2021/01/09 07:32:45;;;;;;;8.52;6.35;;;-4.00;92.70;;;;;;6376851;27;20027;-78
2021/01/09 07:35:46;;;;;;;9.98;6.57;;;-4.10;93.50;;;;;;6377132;27;20046;-79
2021/01/09 07:38:47;;;;;;;11.13;7.40;;;-4.00;92.90;;;;;;6376795;27;20064;-79
2021/01/09 07:41:48;;;;;;;11.60;7.30;;;-3.70;93.60;;;;;;6376653;27;20029;-77
2021/01/09 07:45:07;;;;;;;9.38;6.25;;;-1.80;93.60;;;;;;6376733;27;20015;-78
2021/01/09 07:48:18;;;;;;;8.73;6.00;;;-3.80;91.80;;;;;;6376771;27;20115;-78
2021/01/09 07:51:19;;;;;;;10.18;6.10;;;-3.60;92.60;;;;;;6359107;27;20056;-77
2021/01/09 07:54:33;;;;;;;9.32;6.38;;;-3.60;99.90;;;;;;6376565;27;20054;-77
2021/01/09 07:57:34;;;;;;;9.38;6.75;;;-3.50;91.10;;;;;;6376263;27;20445;-80
2021/01/09 08:00:35;;;;;;;9.82;6.75;;;-3.50;92.70;;;;;;6357968;27;20019;-79
2021/01/09 08:03:37;;;;;;;10.85;7.40;;;-3.30;99.90;;;;;;6376253;27;20076;-78
2021/01/09 08:06:38;;;;;;;9.80;6.43;;;-3.10;92.00;;;;;;6376140;27;20019;-78
2021/01/09 08:09:39;;;;;;;11.25;6.57;;;;;;;;;;6376117;27;20285;-77
2021/01/09 08:12:40;;;;;;;10.75;7.05;;;-2.70;95.50;;;;;;6375873;27;20015;-78
2021/01/09 08:15:42;;;;;;;10.85;7.18;;;-1.20;91.10;;;;;;6376128;27;20027;-77
2021/01/09 08:18:43;;;;;;;12.45;6.63;;;-0.60;90.20;;;;;;6375784;27;20023;-77
2021/01/09 08:21:47;;;;;;;9.15;6.50;;;-2.50;90.20;;;;;;6375898;27;20108;-77
2021/01/09 08:24:48;;;;;;;9.88;6.70;;;;;;;;;;6375628;27;20114;-78
2021/01/09 08:27:59;;;;;;;9.55;6.90;;;-2.10;94.40;;;;;;6374849;27;20030;-78
2021/01/09 08:31:00;;;;;;;10.82;7.13;;;-1.50;89.40;;;;;;6375520;27;20029;-78
2021/01/09 08:34:00;;;;;;;10.95;6.90;;;-1.10;88.10;;;;;;6375694;27;20019;-80
2021/01/09 08:37:01;;;;;;;15.63;8.63;;;-1.40;87.70;;;;;;6322969;27;20068;-79
2021/01/09 08:40:14;;;;;;;9.80;7.30;;;-1.70;86.80;;;;;;6375284;27;20069;-78
2021/01/09 08:43:15;;;;;;;;;;;-1.30;84.50;;;;;;6357650;27;20030;-78
2021/01/09 08:46:15;;;;;;;11.88;7.22;;;-0.70;85.40;;;;;;6375233;27;20336;-78
2021/01/09 08:49:24;;;;;;;11.60;7.50;;;-0.10;82.20;;;;;;6357003;27;20446;-78
2021/01/09 08:52:25;;;;;;;9.57;7.03;;;-0.80;80.50;;;;;;6322881;27;20094;-78
2021/01/09 08:55:26;;;;;;;10.18;6.45;;;;;;;;;;6339726;27;20023;-78
2021/01/09 08:58:29;;;;;;;8.05;6.47;;;1.30;85.20;;;;;;6356539;27;20027;-78
2021/01/09 09:01:46;;;;;;;10.85;7.25;;;3.20;73.60;;;;;;6356491;27;20513;-78
2021/01/09 09:04:48;;;;;;;9.05;6.00;;;2.70;88.20;;;;;;6314034;28;20382;-80
2021/01/09 09:07:48;;;;;;;9.75;6.43;;;3.80;70.10;;;;;;6322645;28;20126;-78
2021/01/09 09:10:49;;;;;;;9.38;6.55;;;;;;;;;;6305766;28;20038;-77
2021/01/09 09:14:06;;;;;;;10.05;6.22;;;3.00;77.60;;;;;;6322477;28;20031;-79
2021/01/09 09:17:07;;;;;;;9.45;6.22;;;2.80;68.00;;;;;;6323632;28;20016;-77
2021/01/09 09:20:14;;;;;;;10.40;6.70;;;3.60;85.50;;;;;;6323645;28;20082;-77
2021/01/09 09:23:16;;;;;;;8.38;6.60;;;4.60;67.40;;;;;;6305219;28;20040;-79
2021/01/09 09:26:17;;;;;;;9.27;6.80;;;4.20;92.00;;;;;;6305475;28;20525;-77
2021/01/09 09:29:18;;;;;;;10.45;6.88;;;4.50;77.00;;;;;;6323352;28;20020;-79
2021/01/09 09:32:26;;;;;;;10.18;8.20;;;5.10;63.70;;;;;;6323524;28;20363;-77
2021/01/09 09:35:28;;;;;;;10.77;8.18;;;4.50;61.10;;;;;;6323141;28;20102;-80
2021/01/09 09:38:29;;;;;;;8.70;7.25;;;6.40;61.20;;;;;;6321729;28;20481;-80
2021/01/09 09:41:29;;;;;;;11.45;7.40;;;5.50;59.00;;;;;;6323221;28;20020;-77
2021/01/09 09:44:37;;;;;;;13.60;8.73;;;5.60;71.90;;;;;;6322885;28;20097;-77
2021/01/09 09:47:38;;;;;;;11.75;7.43;;;5.40;58.30;;;;;;6322935;28;20073;-79
2021/01/09 09:50:39;;;;;;;12.70;9.05;;;5.90;58.30;;;;;;6321604;28;20408;-77
2021/01/09 09:53:41;;;;;;;11.55;8.55;;;5.90;58.70;;;;;;6321670;28;20081;-77
2021/01/09 09:56:42;;;;;;;12.30;8.43;;;5.90;57.80;;;;;;6321442;28;20028;-78
2021/01/09 09:59:42;;;;;;;9.20;7.18;;;6.20;59.00;;;;;;6322748;28;20067;-77
2021/01/09 10:02:53;;;;;;;9.93;8.07;;;6.20;72.00;;;;;;6323823;27;20031;-78
2021/01/09 10:06:02;;;;;;;10.27;7.47;;;6.20;58.10;;;;;;6373435;27;20070;-77
2021/01/09 10:09:09;;;;;;;11.82;9.65;;;6.20;57.80;;;;;;6354768;27;20063;-77
2021/01/09 10:12:10;;;;;;;13.27;9.38;;;6.50;57.20;;;;;;6373312;27;20023;-78
2021/01/09 10:15:11;;;;;;;17.58;10.23;;;6.80;57.50;;;;;;6373099;27;20019;-79
2021/01/09 10:18:11;;;;;;;11.35;8.32;;;6.60;57.00;;;;;;6373184;27;20024;-79
2021/01/09 10:21:14;;;;;;;10.90;8.27;;;7.10;55.90;;;;;;6373150;27;20098;-77
2021/01/09 10:24:15;;;;;;;;;;;7.20;55.10;;;;;;6373468;27;20062;-77
2021/01/09 10:27:15;;;;;;;13.05;9.07;;;7.40;54.80;;;;;;6373117;27;19903;-77
2021/01/09 10:30:16;;;;;;;9.93;7.07;;;7.20;54.40;;;;;;6373043;27;20019;-79
2021/01/09 10:33:17;;;;;;;8.80;6.40;;;7.70;73.40;;;;;;6372951;28;20034;-78
2021/01/09 10:36:22;;;;;;;11.25;6.15;;;7.70;51.60;;;;;;6372909;27;20027;-78
2021/01/09 10:39:23;;;;;;;9.85;8.48;;;8.50;50.40;;;;;;6373146;28;20031;-77
2021/01/09 10:42:27;;;;;;;8.10;6.45;;;8.80;50.40;;;;;;6372686;27;20039;-79
2021/01/09 10:45:28;;;;;;;7.75;6.35;;;8.60;50.50;;;;;;6354510;28;20022;-79
2021/01/09 10:48:29;;;;;;;10.88;7.68;;;;;;;;;;6372840;27;20027;-77
2021/01/09 10:51:29;;;;;;;8.35;6.63;;;8.80;58.20;;;;;;6377979;27;20023;-77
2021/01/09 10:54:30;;;;;;;9.25;6.72;;;9.00;49.30;;;;;;6377907;27;20019;-77
2021/01/09 10:57:30;;;;;;;6.90;6.20;;;9.00;48.00;;;;;;6377734;27;20038;-77
2021/01/09 11:00:31;;;;;;;8.52;6.28;;;8.50;49.80;;;;;;6377825;27;20011;-77
2021/01/09 11:03:32;;;;;;;9.05;6.10;;;8.50;49.00;;;;;;6377185;27;20047;-78
2021/01/09 11:06:32;;;;;;;10.75;6.82;;;8.60;51.00;;;;;;6377783;27;20384;-79
2021/01/09 11:09:33;;;;;;;9.70;6.60;;;8.70;82.40;;;;;;6377431;27;20031;-80
2021/01/09 11:12:33;;;;;;;11.20;6.82;;;8.70;49.40;;;;;;6359075;27;20032;-80
2021/01/09 11:15:35;;;;;;;9.00;6.57;;;8.40;49.80;;;;;;6377381;27;20027;-78
2021/01/09 11:18:36;;;;;;;10.48;6.95;;;8.40;49.30;;;;;;6359128;27;20063;-78
2021/01/09 11:21:37;;;;;;;8.65;6.95;;;8.10;51.40;;;;;;6377208;27;20484;-79
2021/01/09 11:24:38;;;;;;;10.65;7.13;;;7.70;86.40;;;;;;6376872;27;20069;-77
2021/01/09 11:27:38;;;;;;;12.80;7.65;;;7.70;69.70;;;;;;6377484;27;20379;-78
2021/01/09 11:30:48;;;;;;;10.95;7.03;;;7.80;52.10;;;;;;6376972;27;20046;-77
2021/01/09 11:33:49;;;;;;;10.02;6.72;;;7.70;53.40;;;;;;6377363;27;20047;-79
2021/01/09 11:36:49;;;;;;;11.88;8.32;;;7.60;54.50;;;;;;6376954;27;20442;-78
2021/01/09 11:39:53;;;;;;;9.65;7.28;;;8.00;52.70;;;;;;6377014;27;20015;-78
2021/01/09 11:42:54;;;;;;;13.48;8.25;;;7.70;65.10;;;;;;6358923;27;20341;-77
2021/01/09 11:45:55;;;;;;;11.05;7.95;;;7.50;55.70;;;;;;6358555;27;20019;-77
2021/01/09 11:48:55;;;;;;;13.35;8.80;;;7.20;56.70;;;;;;6358184;27;20053;-77
2021/01/09 11:52:01;;;;;;;11.70;8.20;;;7.10;57.80;;;;;;6376570;27;20031;-77
2021/01/09 11:55:02;;;;;;;15.05;8.10;;;7.60;73.80;;;;;;6344711;27;20023;-79
2021/01/09 11:58:02;;;;;;;8.25;6.93;;;7.50;56.50;;;;;;6376446;27;20376;-77
2021/01/09 12:01:03;;;;;;;11.35;8.10;;;7.40;55.80;;;;;;6356846;27;20023;-78
2021/01/09 12:04:04;;;;;;;8.77;6.32;;;7.30;53.20;;;;;;6375877;27;20043;-77
2021/01/09 12:07:05;;;;;;;8.70;6.22;;;7.20;53.90;;;;;;6376411;27;20107;-77
2021/01/09 12:10:09;;;;;;;11.15;6.47;;;7.30;51.30;;;;;;6376152;27;20031;-77
2021/01/09 12:13:10;;;;;;;9.55;6.00;;;7.20;52.20;;;;;;6376288;27;20536;-78
2021/01/09 12:16:11;;;;;;;9.70;6.43;;;7.30;84.40;;;;;;6375954;27;20030;-77
2021/01/09 12:19:11;;;;;;;7.25;5.13;;;6.90;53.50;;;;;;6375993;27;20473;-78
2021/01/09 12:22:12;;;;;;;6.78;4.72;;;7.40;50.00;;;;;;6375958;27;20084;-77
2021/01/09 12:25:12;;;;;;;10.10;5.50;;;7.10;48.80;;;;;;6375895;27;20461;-78
2021/01/09 12:28:13;;;;;;;5.97;4.82;;;6.80;52.20;;;;;;6375860;27;20034;-77
2021/01/09 12:31:14;;;;;;;5.05;4.47;;;6.40;51.70;;;;;;6375643;27;20072;-77
2021/01/09 12:34:15;;;;;;;4.57;4.13;;;5.80;52.40;;;;;;6357203;27;20028;-77
2021/01/09 12:37:16;;;;;;;5.00;4.47;;;5.70;53.00;;;;;;6375532;27;20021;-78
2021/01/09 12:40:16;;;;;;;5.68;5.05;;;6.00;54.70;;;;;;6340203;27;20015;-77
2021/01/09 12:43:17;;;;;;;5.15;4.40;;;5.30;56.20;;;;;;6356952;27;20110;-77
2021/01/09 12:46:17;;;;;;;6.32;4.50;;;5.00;55.90;;;;;;6375291;27;20023;-81
2021/01/09 12:49:19;;;;;;;5.22;4.32;;;4.60;57.60;;;;;;6375384;27;20375;-77
2021/01/09 12:52:20;;;;;;;4.73;3.97;;;3.80;88.50;;;;;;6356884;27;20064;-76
2021/01/09 12:55:20;;;;;;;4.75;3.95;;;4.50;56.60;;;;;;6374898;27;20023;-76
2021/01/09 12:58:21;;;;;;;4.72;4.07;;;4.40;58.80;;;;;;6356368;27;20020;-78
2021/01/09 13:01:47;;;;;;;4.90;4.40;;;3.60;59.90;;;;;;6374727;27;20446;-77
2021/01/09 13:04:48;;;;;;;6.15;4.40;;;3.80;74.70;;;;;;6374329;27;20039;-77
2021/01/09 13:07:48;;;;;;;5.13;4.40;;;3.50;93.50;;;;;;6374540;27;20369;-78
2021/01/09 13:10:49;;;;;;;5.28;4.15;;;3.20;81.50;;;;;;6374495;27;20076;-77
2021/01/09 13:13:50;;;;;;;5.15;4.38;;;3.20;83.10;;;;;;6374291;27;20019;-75
2021/01/09 13:16:52;;;;;;;5.43;4.38;;;3.80;64.30;;;;;;6356062;27;20022;-77
2021/01/09 13:19:53;;;;;;;;;;;3.60;62.40;;;;;;6374960;27;20812;-76
2021/01/09 13:22:54;;;;;;;7.55;4.78;;;;;;;;;;6374166;27;19908;-78
2021/01/09 13:26:04;;;;;;;7.63;5.35;;;3.00;71.30;;;;;;6374342;27;20364;-76
2021/01/09 13:29:05;;;;;;;8.57;5.93;;;4.40;63.90;;;;;;6373974;27;20372;-76
2021/01/09 13:32:07;;;;;;;7.18;5.75;;;4.10;62.30;;;;;;6374004;27;20023;-77
2021/01/09 13:35:09;;;;;;;5.22;4.50;;;4.50;63.10;;;;;;6373966;27;20350;-76
2021/01/09 13:38:09;;;;;;;7.47;5.33;;;;;;;;;;6373844;27;20063;-76
2021/01/09 13:41:10;;;;;;;7.40;5.30;;;2.70;72.90;;;;;;6373806;27;20486;-76
2021/01/09 13:44:11;;;;;;;8.55;5.40;;;3.10;63.80;;;;;;6355396;27;20411;-78
2021/01/09 13:47:11;;;;;;;18.05;6.47;;;3.50;63.30;;;;;;6374224;27;20026;-77
2021/01/09 13:50:12;;;;;;;8.30;5.72;;;3.00;63.90;;;;;;6373991;27;20031;-76
2021/01/09 13:53:12;;;;;;;7.40;6.03;;;3.50;63.30;;;;;;6373872;27;20027;-77
2021/01/09 13:56:13;;;;;;;9.02;6.30;;;3.10;64.40;;;;;;6373415;27;20373;-80
2021/01/09 13:59:15;;;;;;;7.78;5.78;;;2.50;93.10;;;;;;6373412;27;20218;-76
2021/01/09 14:02:15;;;;;;;9.90;6.57;;;3.30;64.70;;;;;;6373251;27;20087;-76
2021/01/09 14:05:16;;;;;;;7.90;6.03;;;3.50;67.00;;;;;;6373042;27;20043;-78
2021/01/09 14:08:17;;;;;;;7.97;6.30;;;3.70;66.40;;;;;;6373392;27;20019;-78
2021/01/09 14:11:21;;;;;;;9.02;6.80;;;2.20;68.20;;;;;;6373248;27;20061;-76
2021/01/09 14:14:22;;;;;;;10.10;7.38;;;;;;;;;;6373342;27;20024;-76
2021/01/09 14:17:23;;;;;;;10.90;7.35;;;1.90;77.80;;;;;;6373144;27;20027;-76
2021/01/09 14:20:24;;;;;;;6.70;5.97;;;;;;;;;;6373024;27;20460;-77
2021/01/09 14:23:24;;;;;;;11.63;7.50;;;2.10;64.80;;;;;;6372035;27;20034;-76
2021/01/09 14:26:35;;;;;;;8.60;6.00;;;3.40;68.50;;;;;;6372859;27;20062;-76
2021/01/09 14:29:36;;;;;;;8.68;6.72;;;;;;;;;;6354531;28;20411;-77
2021/01/09 14:32:37;;;;;;;9.85;6.70;;;1.90;77.30;;;;;;6373068;27;20030;-78
2021/01/09 14:35:38;;;;;;;8.10;6.28;;;2.20;67.00;;;;;;6372844;27;20719;-76
2021/01/09 14:38:38;;;;;;;14.63;7.13;;;3.50;65.40;;;;;;6372945;28;20077;-76
2021/01/09 14:41:43;;;;;;;9.35;7.15;;;2.10;67.40;;;;;;6372830;27;20015;-76
2021/01/09 14:44:44;;;;;;;11.65;8.50;;;1.90;67.90;;;;;;6372922;28;20045;-76
2021/01/09 14:47:45;;;;;;;8.70;6.57;;;3.00;69.00;;;;;;6372774;27;20023;-76
2021/01/09 14:50:46;;;;;;;8.98;6.25;;;2.40;67.00;;;;;;6372828;27;20034;-76
2021/01/09 14:53:47;;;;;;;9.23;6.43;;;1.80;66.80;;;;;;6372896;28;20370;-76
2021/01/09 14:56:49;;;;;;;9.90;7.07;;;2.50;68.40;;;;;;6373626;27;20019;-77
2021/01/09 14:59:49;;;;;;;9.43;6.40;;;3.40;66.70;;;;;;6372638;28;20019;-76
2021/01/09 15:02:50;;;;;;;10.50;7.68;;;2.80;69.30;;;;;;6372071;28;20477;-76
2021/01/09 15:05:51;;;;;;;30.60;16.08;;;1.60;94.50;;;;;;6372797;28;20024;-78
2021/01/09 15:08:51;;;;;;;21.63;12.15;;;2.80;69.60;;;;;;6372474;27;20019;-77
2021/01/09 15:11:52;;;;;;;24.80;14.95;;;2.50;69.60;;;;;;6372742;27;20403;-77
2021/01/09 15:14:53;;;;;;;21.20;15.02;;;3.10;69.70;;;;;;6372527;28;20031;-78
2021/01/09 15:17:54;;;;;;;18.13;10.98;;;2.00;70.60;;;;;;6372283;27;20023;-76
2021/01/09 15:20:55;;;;;;;11.98;8.52;;;1.60;93.90;;;;;;6372391;27;20049;-77
2021/01/09 15:23:55;;;;;;;13.75;9.32;;;1.70;81.80;;;;;;6372249;27;20039;-76
2021/01/09 15:26:56;;;;;;;15.00;9.98;;;1.60;68.70;;;;;;6372615;28;20029;-77
2021/01/09 15:29:56;;;;;;;15.93;11.65;;;1.70;68.80;;;;;;6372214;27;20118;-76
2021/01/09 15:32:57;;;;;;;23.92;11.63;;;1.70;68.40;;;;;;6372461;27;20023;-77
2021/01/09 15:35:58;;;;;;;15.50;10.50;;;;;;;;;;6374634;27;20034;-76
2021/01/09 15:38:59;;;;;;;11.75;8.48;;;1.70;67.30;;;;;;6376858;27;20022;-76
2021/01/09 15:42:00;;;;;;;27.90;14.30;;;1.90;91.70;;;;;;6376786;27;20023;-76
2021/01/09 15:45:01;;;;;;;11.75;7.57;;;1.60;68.20;;;;;;6358087;27;20395;-76
2021/01/09 15:48:01;;;;;;;13.13;8.45;;;1.60;68.80;;;;;;6376810;27;20513;-76
2021/01/09 15:51:03;;;;;;;10.57;7.88;;;1.70;69.20;;;;;;6376744;27;20038;-78
2021/01/09 15:54:05;;;;;;;17.88;10.10;;;1.50;69.40;;;;;;6376629;27;20038;-76
2021/01/09 15:57:05;;;;;;;29.48;15.57;;;1.60;94.80;;;;;;6376374;27;20439;-76